METAR / TAF

La liste des METAR et des TAF n’est pas destinée pour un briefing météo pour des raisons techniques (disponibilité, cycle de renouvellement). Il faut plutôt utiliser le skybriefing de Skyguide ou le TAMSI (plateforme de self-briefing météo conçue par MétéoSuisse pour les entreprises dans le domaine de l’aéronautique, questions et demandes d’informations à 

Formulaire de contact

 

METAR Suisse

METAR     LSZH 212120Z 13004KT 6000 -SN FEW003 SCT004 BKN005 01/00
               Q1017 R88/29//// TEMPO 2000 SN=
METAR     LSZH 212150Z 13004KT 4000 -SN FEW002 BKN004 01/M00 Q1017
               R88/29//// TEMPO 2000 SN=
METAR     LSGG 212120Z AUTO VRB01KT 5000 -RA BKN004 05/05 Q1019=
METAR     LSGG 212150Z AUTO 25003KT 190V300 9999 -RA BKN005 BKN031
               05/05 Q1018 NOSIG=
METAR     LFSB 212200Z 11008KT 9999 -RA BKN028 03/01 Q1016 NOSIG=
METAR     LSZB 212120Z AUTO VRB02KT 2500 -RASN BR BKN/// 02/01
               Q1017 RESN=
METAR     LSZB 212150Z AUTO 10003KT 4300 -RASN BR BKN/// 02/01
               Q1016=
METAR     LSZA 212120Z AUTO VRB02KT 9999 NSC 06/01 Q1013=
METAR     LSZA 212150Z AUTO VRB02KT 9999 NCD 05/01 Q1014=
METAR     LSZG 212120Z AUTO 06002KT 2700 -RASN BR BKN/// 02/02
               Q1017=
METAR     LSZG 212150Z AUTO 07001KT 3600 -RASN BR BKN/// 02/02
               Q1017=
METAR     LSZR 212120Z AUTO 10007KT 9999 -SN BKN/// 01/M00 Q1017=
METAR     LSZR 212150Z AUTO 10008KT 9999 -DZ BKN050 02/M00 Q1017
               RESN=
METAR     LSGS 212120Z AUTO 00000KT 2500 -RA BR BKN024 03/03 Q1019=
METAR     LSGS 212150Z AUTO 09001KT 1700 -RA BR BKN/// 03/03 Q1018=
METAR     LSGC 212120Z AUTO 23002KT //// // BKN004 01/01 Q1015=
METAR     LSGC 212150Z AUTO 24003KT 200V270 //// // OVC002 01/01
               Q1014=
METAR     LSZC 212120Z AUTO VRB01KT 2000 SN BKN/// 00/M00 Q1017=
METAR     LSZC 212150Z AUTO VRB01KT 1000 SN BKN/// 00/M00 Q1017=
METAR RRA LSZL 212150Z AUTO VRB04KT 9999NDV FEW150 SCT190 05/M00
               Q1014 RMK=
METAR     LSZL 212120Z NIL=
METAR     LSZS 212120Z AUTO 20003KT 170V240 9999 -SN BKN/// M06/M08
               Q1012=
METAR     LSZS 212150Z AUTO 18005KT 9000 -SN BKN/// M06/M08 Q1012=
METAR RRA LSMA 212150Z AUTO 00000KT 3500NDV -RASN BR FEW001 SCT005
               BKN042 00/M00 Q1017 RMK=
METAR     LSMA 212120Z NIL=
METAR RRA LSMD 212150Z AUTO 14004KT 5000NDV -SN BKN003 BKN026
               OVC030 01/00 Q1017 RMK=
METAR     LSMD 212120Z NIL=
METAR     LSME 212120Z NIL=
METAR     LSME 212150Z NIL=
METAR RRA LSMM 212150Z AUTO 00000KT 2200NDV -SN BR FEW002 SCT019
               00/M00 Q1017 RMK=
METAR     LSMM 212120Z NIL=
METAR RRA LSMP 212150Z AUTO 25007KT 9999NDV -RA SCT015 OVC033 05/04
               Q1017 RERA RMK=
METAR     LSMP 212120Z NIL=
METAR     LSMS 212120Z AUTO 00000KT 2500 -RA BR BKN024 03/03 Q1019=
METAR     LSMS 212150Z AUTO 09001KT 1700 -RA BR BKN/// 03/03 Q1018=
Actualisé le dimanche 21 janvier 2018 à 23h11

TAF Suisse

TAF RRA LSZH 212025Z 2121/2303 15005KT 5000 RA SCT005 BKN014
             TX08/2215Z TN02/2200Z TEMPO 2121/2124 3000 -SN BKN005
             PROB40 2121/2124 2000 SN BKN004 TEMPO 2123/2215 2500
             +RA BKN005 BECMG 2203/2206 20010KT TEMPO 2206/2221
             24015G25KT BECMG 2215/2218 NSW TEMPO 2215/2303 SHRA=
TAF     LSGG 212025Z 2121/2303 23008KT 7000 -RA SCT005 BKN014
             TX10/2215Z TN06/2206Z BECMG 2121/2124 RA FEW010
             SCT020 BKN040 TEMPO 2212/2218 23015G25KT BECMG
             2218/2221 NSW=
TAF RRA LFSB 211700Z 2118/2218 12005KT 9999 -RA BKN020 TEMPO
             2122/2218 3000 RA BKN005 BECMG 2202/2204 25010KT
             TEMPO 2203/2210 25015G25KT SCT020TCU TEMPO 2213/2218
             25020G35KT SCT020TCU=
TAF AAA LFSB 211943Z 2119/2218 12005KT 9999 -RA BKN020 TEMPO
             2119/2218 3000 RA BKN007 BECMG 2202/2204 25010KT
             TEMPO 2204/2210 25015G25KT SCT020TCU TEMPO 2213/2218
             25020G35KT SCT020TCU=
TAF AAB LSGS 212004Z 2120/2124 CNL=
TAF     LSGS 211425Z 2115/2124 25008KT 9000 -RA SCT025 OVC050=
TAF RRA LSZA 211425Z 2115/2124 02015G28KT 9999 FEW060 BECMG
             2118/2121 VRB03KT=
TAF AAF LSZA 212054Z 2120/2124 CNL=
TAF AAC LSZB 212054Z 2120/2124 CNL=
TAF     LSZB 211425Z 2115/2124 30005KT 9999 SCT015 BKN025 BECMG
             2115/2118 RA BKN012=
TAF AAD LSZG 212054Z 2120/2124 CNL=
TAF     LSZG 211425Z 2115/2124 26005KT 9999 FEW012 SCT045 BKN080
             BECMG 2116/2119 4000 RA BKN012 PROB30 TEMPO 2116/2119
             2500 RASN BKN009=
TAF RRA LSZR 211425Z 2115/2124 27005KT 9999 SCT020 BKN050 BECMG
             2121/2124 RA BKN010=
TAF AAD LSZR 212054Z 2120/2124 CNL=
TAF AAA LSGC 212004Z 2120/2124 CNL=
TAF     LSGC 211425Z 2115/2124 23004KT 5000 BR OVC007 PROB40 TEMPO
             2115/2124 2000 SN OVC003=
TAF AAE LSZS 212054Z 2120/2124 CNL=
TAF     LSZS 211425Z 2115/2124 VRB05KT 2500 -SN BKN012 OVC028
             TXM04/2115Z TEMPO 2115/2124 5000 NSW BKN018=
TAF AAA LSMA 211809Z 2118/2223 VRB01KT 1800 SN SCT005 BKN009 TEMPO
             2118/2123 0400 +SN VV002 BECMG 2122/2202 3000 +RA
             TEMPO 2212/2218 23012G25KT=
TAF     LSMA 211625Z 2117/2223 VRB03KT 4000 RA BKN014 OVC020 TEMPO
             2117/2122 RASN BKN008 TEMPO 2122/2223 3000 +RA BKN007
             TEMPO 2201/2223 23012G25KT=
TAF RRA LSMD 211625Z 2117/2223 VRB03KT 9999 BKN020 OVC030 BECMG
             2120/2123 24010KT 4000 RA BKN014 PROB30 TEMPO
             2120/2123 -RASN TEMPO 2201/2216 3000 RA BKN008 TEMPO
             2211/2221 25015G28KT BECMG 2215/2218 NSW TEMPO
             2215/2221 SHRA=
TAF RRA LSME 211625Z 2117/2223 VRB03KT 9999 SCT020 BKN030 BECMG
             2117/2119 4000 RA BKN020 TEMPO 2201/2216 3000 +RA
             BKN008 TEMPO 2211/2223 24012G25KT BECMG 2215/2218 NSW
             TEMPO 2215/2223 SHRA=
TAF AAB LSME 211817Z 2118/2223 VRB03KT 4200 -SN FEW003 BKN008 TEMPO
             2118/2123 0400 +SN VV002 BECMG 2122/2202 RA TEMPO
             2216/2223 24012G25KT BECMG 2214/2217 NSW TEMPO
             2215/2223 SHRA=
TAF RRA LSMM 211625Z 2117/2223 31008KT 9999 SCT015 BKN020 BECMG
             2117/2119 4000 RA BKN014 TEMPO 2123/2223 3000 +RA
             BKN006 PROB30 2200/2207 0500 +SN VV004=
TAF AAC LSMM 211824Z 2118/2223 VRB02KT 7000 RA BKN008 BKN012 BECMG
             2118/2120 0500 +SN VV002 BECMG 2207/2210 5000 RA
             BKN009 BECMG 2214/2217 NSW BKN015 TEMPO 2215/2223
             SHRA=
TAF     LSMP 211625Z 2117/2223 23006KT 9999 -RA FEW010 BKN030 BECMG
             2122/2201 24015G25KT RA BECMG 2211/2213 24025G40KT
             BECMG 2218/2220 26010KT=
Actualisé le dimanche 21 janvier 2018 à 23h03